Címlap Spotter Aktuális időjárásjelentés, előrejelzés Debrecen Airport (METAR/TAF LHDC/DEB)

Aktuális időjárásjelentés, előrejelzés Debrecen Airport (METAR/TAF LHDC/DEB)

Aktuális szöveges időjárásjelentés / METAR DEB/LHDC és 24 órás szöveges időjárás-előrejelzés / TAF DEB/LHDCDebrecen Airport

Available data for LHDC from the past 6 hours
Metar
LHDC 201045Z 09004KT CAVOK 30/15 Q1021 NOSIG

10:45 UTC

Wind: 90° 4kt

Visibility:

Sky:

Temp: 30 deg C / 86 deg F

Dewpoint: 15 deg C / 59 deg F

Pressure: 1021 hPa

TAF
TAF LHDC 200815Z 2009/2018 04007KT CAVOK PROB40 TEMPO 2011/2015 VRB12G25KT 7000 SHRA FEW035CB SCT045

Európa műholdkép

Data is taken from the National Weather Service at NOAA. Satelite image by AustroControl & Meteo-Mc. Only for spotters, do not use for real flight!

A METAR és a TAF adatok a National Weather Service adatbázisából származnak. Az oldalon közölt adatok tájékoztató jellegűek, az oldal üzemeltetője nem vállal felelősséget ezek esetleges pontatlanságáért. Ne használd valós repüléshez!

Légitársaságok, légi utazás hírei